sensor_id;sensor_type;location;lat;lon;timestamp;temperature;humidity
4637;DHT22;2331;48.806;9.140;2023-05-28T00:00:53;18.00;1.00
4637;DHT22;2331;48.806;9.140;2023-05-28T00:03:22;17.90;1.00
4637;DHT22;2331;48.806;9.140;2023-05-28T00:05:50;17.90;1.00
4637;DHT22;2331;48.806;9.140;2023-05-28T00:08:18;17.80;1.00
4637;DHT22;2331;48.806;9.140;2023-05-28T00:10:46;17.80;1.00
4637;DHT22;2331;48.806;9.140;2023-05-28T00:13:12;17.70;1.00
4637;DHT22;2331;48.806;9.140;2023-05-28T00:15:39;17.60;1.00
4637;DHT22;2331;48.806;9.140;2023-05-28T00:18:06;17.60;1.00
4637;DHT22;2331;48.806;9.140;2023-05-28T00:20:37;17.60;1.00
4637;DHT22;2331;48.806;9.140;2023-05-28T00:23:05;17.50;1.00
4637;DHT22;2331;48.806;9.140;2023-05-28T00:25:32;17.50;1.00
4637;DHT22;2331;48.806;9.140;2023-05-28T00:27:58;17.50;1.00
4637;DHT22;2331;48.806;9.140;2023-05-28T00:30:25;17.40;1.00
4637;DHT22;2331;48.806;9.140;2023-05-28T00:32:52;17.40;1.00
4637;DHT22;2331;48.806;9.140;2023-05-28T00:35:19;17.30;1.00
4637;DHT22;2331;48.806;9.140;2023-05-28T00:37:45;17.30;1.00
4637;DHT22;2331;48.806;9.140;2023-05-28T00:40:13;17.20;1.00
4637;DHT22;2331;48.806;9.140;2023-05-28T00:42:41;17.20;1.00
4637;DHT22;2331;48.806;9.140;2023-05-28T00:45:09;17.20;1.00
4637;DHT22;2331;48.806;9.140;2023-05-28T00:47:36;17.20;1.00
4637;DHT22;2331;48.806;9.140;2023-05-28T00:50:06;17.20;1.00
4637;DHT22;2331;48.806;9.140;2023-05-28T00:52:33;17.10;1.00
4637;DHT22;2331;48.806;9.140;2023-05-28T00:55:01;17.00;1.00
4637;DHT22;2331;48.806;9.140;2023-05-28T00:57:29;17.00;1.00
4637;DHT22;2331;48.806;9.140;2023-05-28T00:59:56;17.00;1.00
4637;DHT22;2331;48.806;9.140;2023-05-28T01:02:27;16.90;1.00
4637;DHT22;2331;48.806;9.140;2023-05-28T01:04:54;16.90;1.00
4637;DHT22;2331;48.806;9.140;2023-05-28T01:07:21;16.90;1.00
4637;DHT22;2331;48.806;9.140;2023-05-28T01:09:47;16.90;1.00
4637;DHT22;2331;48.806;9.140;2023-05-28T01:12:15;16.80;1.00
4637;DHT22;2331;48.806;9.140;2023-05-28T01:14:43;16.80;1.00
4637;DHT22;2331;48.806;9.140;2023-05-28T01:17:11;16.70;1.00
4637;DHT22;2331;48.806;9.140;2023-05-28T01:19:40;16.70;1.00
4637;DHT22;2331;48.806;9.140;2023-05-28T01:22:08;16.70;1.00
4637;DHT22;2331;48.806;9.140;2023-05-28T01:24:39;16.70;1.00
4637;DHT22;2331;48.806;9.140;2023-05-28T01:27:06;16.70;1.00
4637;DHT22;2331;48.806;9.140;2023-05-28T01:29:33;16.60;1.00
4637;DHT22;2331;48.806;9.140;2023-05-28T01:32:00;16.60;1.00
4637;DHT22;2331;48.806;9.140;2023-05-28T01:34:27;16.60;1.00
4637;DHT22;2331;48.806;9.140;2023-05-28T01:36:57;16.60;1.00
4637;DHT22;2331;48.806;9.140;2023-05-28T01:39:26;16.50;1.00
4637;DHT22;2331;48.806;9.140;2023-05-28T01:41:56;16.50;1.00
4637;DHT22;2331;48.806;9.140;2023-05-28T01:44:24;16.50;1.00
4637;DHT22;2331;48.806;9.140;2023-05-28T01:46:51;16.40;1.00
4637;DHT22;2331;48.806;9.140;2023-05-28T01:49:22;16.30;1.00
4637;DHT22;2331;48.806;9.140;2023-05-28T01:51:50;16.20;1.00
4637;DHT22;2331;48.806;9.140;2023-05-28T01:54:17;16.20;1.00
4637;DHT22;2331;48.806;9.140;2023-05-28T01:56:45;16.30;1.00
4637;DHT22;2331;48.806;9.140;2023-05-28T01:59:13;16.30;1.00
4637;DHT22;2331;48.806;9.140;2023-05-28T02:01:40;16.30;1.00
4637;DHT22;2331;48.806;9.140;2023-05-28T02:04:07;16.20;1.00
4637;DHT22;2331;48.806;9.140;2023-05-28T02:06:34;16.20;1.00
4637;DHT22;2331;48.806;9.140;2023-05-28T02:09:01;16.10;1.00
4637;DHT22;2331;48.806;9.140;2023-05-28T02:11:28;16.10;1.00
4637;DHT22;2331;48.806;9.140;2023-05-28T02:13:55;16.10;1.00
4637;DHT22;2331;48.806;9.140;2023-05-28T02:16:23;16.00;1.00
4637;DHT22;2331;48.806;9.140;2023-05-28T02:18:51;16.00;1.00
4637;DHT22;2331;48.806;9.140;2023-05-28T02:21:18;16.00;1.00
4637;DHT22;2331;48.806;9.140;2023-05-28T02:23:47;16.00;1.00
4637;DHT22;2331;48.806;9.140;2023-05-28T02:26:14;15.90;1.00
4637;DHT22;2331;48.806;9.140;2023-05-28T02:28:41;15.90;1.00
4637;DHT22;2331;48.806;9.140;2023-05-28T02:31:09;15.80;1.00
4637;DHT22;2331;48.806;9.140;2023-05-28T02:33:37;15.80;1.00
4637;DHT22;2331;48.806;9.140;2023-05-28T02:36:04;15.70;1.00
4637;DHT22;2331;48.806;9.140;2023-05-28T02:38:33;15.80;1.00
4637;DHT22;2331;48.806;9.140;2023-05-28T02:41:00;15.80;1.00
4637;DHT22;2331;48.806;9.140;2023-05-28T02:43:27;15.70;1.00
4637;DHT22;2331;48.806;9.140;2023-05-28T02:45:53;15.70;1.00
4637;DHT22;2331;48.806;9.140;2023-05-28T02:48:20;15.60;1.00
4637;DHT22;2331;48.806;9.140;2023-05-28T02:50:48;15.50;1.00
4637;DHT22;2331;48.806;9.140;2023-05-28T02:53:17;15.50;1.00
4637;DHT22;2331;48.806;9.140;2023-05-28T02:55:44;15.40;1.00
4637;DHT22;2331;48.806;9.140;2023-05-28T02:58:11;15.40;1.00
4637;DHT22;2331;48.806;9.140;2023-05-28T03:00:38;15.40;1.00
4637;DHT22;2331;48.806;9.140;2023-05-28T03:03:05;15.40;1.00
4637;DHT22;2331;48.806;9.140;2023-05-28T03:05:31;15.40;1.00
4637;DHT22;2331;48.806;9.140;2023-05-28T03:08:00;15.40;1.00
4637;DHT22;2331;48.806;9.140;2023-05-28T03:10:27;15.30;1.00
4637;DHT22;2331;48.806;9.140;2023-05-28T03:12:53;15.20;1.00
4637;DHT22;2331;48.806;9.140;2023-05-28T03:15:20;15.30;1.00
4637;DHT22;2331;48.806;9.140;2023-05-28T03:17:50;15.30;1.00
4637;DHT22;2331;48.806;9.140;2023-05-28T03:20:16;15.20;1.00
4637;DHT22;2331;48.806;9.140;2023-05-28T03:22:45;15.30;1.00
4637;DHT22;2331;48.806;9.140;2023-05-28T03:25:14;15.20;1.00
4637;DHT22;2331;48.806;9.140;2023-05-28T03:27:40;15.20;1.00
4637;DHT22;2331;48.806;9.140;2023-05-28T03:30:08;15.20;1.00
4637;DHT22;2331;48.806;9.140;2023-05-28T03:32:35;15.10;1.00
4637;DHT22;2331;48.806;9.140;2023-05-28T03:35:02;15.10;1.00
4637;DHT22;2331;48.806;9.140;2023-05-28T03:37:29;15.00;1.00
4637;DHT22;2331;48.806;9.140;2023-05-28T03:39:56;15.00;1.00
4637;DHT22;2331;48.806;9.140;2023-05-28T03:42:24;14.90;1.00
4637;DHT22;2331;48.806;9.140;2023-05-28T03:44:51;14.90;1.00
4637;DHT22;2331;48.806;9.140;2023-05-28T03:47:18;14.90;1.00
4637;DHT22;2331;48.806;9.140;2023-05-28T03:49:45;14.90;1.00
4637;DHT22;2331;48.806;9.140;2023-05-28T03:52:12;14.90;1.00
4637;DHT22;2331;48.806;9.140;2023-05-28T03:54:39;14.80;1.00
4637;DHT22;2331;48.806;9.140;2023-05-28T03:57:05;14.80;1.00
4637;DHT22;2331;48.806;9.140;2023-05-28T03:59:34;14.70;1.00
4637;DHT22;2331;48.806;9.140;2023-05-28T04:02:01;14.70;1.00
4637;DHT22;2331;48.806;9.140;2023-05-28T04:04:27;14.80;1.00
4637;DHT22;2331;48.806;9.140;2023-05-28T04:06:54;14.80;1.00
4637;DHT22;2331;48.806;9.140;2023-05-28T04:09:21;14.70;1.00
4637;DHT22;2331;48.806;9.140;2023-05-28T04:11:48;14.70;1.00
4637;DHT22;2331;48.806;9.140;2023-05-28T04:14:15;14.70;1.00
4637;DHT22;2331;48.806;9.140;2023-05-28T04:16:43;14.70;1.00
4637;DHT22;2331;48.806;9.140;2023-05-28T04:19:10;14.70;1.00
4637;DHT22;2331;48.806;9.140;2023-05-28T04:21:36;14.70;1.00
4637;DHT22;2331;48.806;9.140;2023-05-28T04:24:03;14.60;1.00
4637;DHT22;2331;48.806;9.140;2023-05-28T04:26:30;14.70;1.00
4637;DHT22;2331;48.806;9.140;2023-05-28T04:28:58;14.70;1.00
4637;DHT22;2331;48.806;9.140;2023-05-28T04:31:25;14.70;1.00
4637;DHT22;2331;48.806;9.140;2023-05-28T04:33:54;14.70;1.00
4637;DHT22;2331;48.806;9.140;2023-05-28T04:36:21;14.70;1.00
4637;DHT22;2331;48.806;9.140;2023-05-28T04:38:55;14.70;1.00
4637;DHT22;2331;48.806;9.140;2023-05-28T04:41:23;14.70;1.00
4637;DHT22;2331;48.806;9.140;2023-05-28T04:43:49;14.70;1.00
4637;DHT22;2331;48.806;9.140;2023-05-28T04:46:16;14.80;1.00
4637;DHT22;2331;48.806;9.140;2023-05-28T04:48:44;14.90;1.00
4637;DHT22;2331;48.806;9.140;2023-05-28T04:51:12;14.90;1.00
4637;DHT22;2331;48.806;9.140;2023-05-28T04:53:39;14.90;1.00
4637;DHT22;2331;48.806;9.140;2023-05-28T04:56:07;14.80;1.00
4637;DHT22;2331;48.806;9.140;2023-05-28T04:58:34;14.90;1.00
4637;DHT22;2331;48.806;9.140;2023-05-28T05:01:01;14.90;1.00
4637;DHT22;2331;48.806;9.140;2023-05-28T05:03:29;14.90;1.00
4637;DHT22;2331;48.806;9.140;2023-05-28T05:05:57;15.00;1.00
4637;DHT22;2331;48.806;9.140;2023-05-28T05:08:25;15.00;1.00
4637;DHT22;2331;48.806;9.140;2023-05-28T05:10:52;15.10;1.00
4637;DHT22;2331;48.806;9.140;2023-05-28T05:13:19;15.10;1.00
4637;DHT22;2331;48.806;9.140;2023-05-28T05:15:46;15.10;1.00
4637;DHT22;2331;48.806;9.140;2023-05-28T05:18:12;15.10;1.00
4637;DHT22;2331;48.806;9.140;2023-05-28T05:20:39;15.20;1.00
4637;DHT22;2331;48.806;9.140;2023-05-28T05:23:06;15.20;1.00
4637;DHT22;2331;48.806;9.140;2023-05-28T05:25:34;15.20;1.00
4637;DHT22;2331;48.806;9.140;2023-05-28T05:28:01;15.30;1.00
4637;DHT22;2331;48.806;9.140;2023-05-28T05:30:27;15.30;1.00
4637;DHT22;2331;48.806;9.140;2023-05-28T05:32:55;15.30;1.00
4637;DHT22;2331;48.806;9.140;2023-05-28T05:35:22;15.30;1.00
4637;DHT22;2331;48.806;9.140;2023-05-28T05:37:48;15.40;1.00
4637;DHT22;2331;48.806;9.140;2023-05-28T05:40:15;15.40;1.00
4637;DHT22;2331;48.806;9.140;2023-05-28T05:42:44;15.50;1.00
4637;DHT22;2331;48.806;9.140;2023-05-28T05:45:11;15.50;1.00
4637;DHT22;2331;48.806;9.140;2023-05-28T05:47:37;15.50;1.00
4637;DHT22;2331;48.806;9.140;2023-05-28T05:50:05;15.50;1.00
4637;DHT22;2331;48.806;9.140;2023-05-28T05:52:32;15.70;1.00
4637;DHT22;2331;48.806;9.140;2023-05-28T05:54:59;15.70;1.00
4637;DHT22;2331;48.806;9.140;2023-05-28T05:57:25;15.70;1.00
4637;DHT22;2331;48.806;9.140;2023-05-28T05:59:54;15.80;1.00
4637;DHT22;2331;48.806;9.140;2023-05-28T06:02:20;15.80;1.00
4637;DHT22;2331;48.806;9.140;2023-05-28T06:04:47;15.90;1.00
4637;DHT22;2331;48.806;9.140;2023-05-28T06:07:14;16.00;1.00
4637;DHT22;2331;48.806;9.140;2023-05-28T06:09:41;16.00;1.00
4637;DHT22;2331;48.806;9.140;2023-05-28T06:12:08;16.00;1.00
4637;DHT22;2331;48.806;9.140;2023-05-28T06:14:35;16.10;1.00
4637;DHT22;2331;48.806;9.140;2023-05-28T06:17:04;16.10;1.00
4637;DHT22;2331;48.806;9.140;2023-05-28T06:19:31;16.20;1.00
4637;DHT22;2331;48.806;9.140;2023-05-28T06:21:58;16.30;1.00
4637;DHT22;2331;48.806;9.140;2023-05-28T06:24:25;16.30;1.00
4637;DHT22;2331;48.806;9.140;2023-05-28T06:26:52;16.40;1.00
4637;DHT22;2331;48.806;9.140;2023-05-28T06:29:19;16.50;1.00
4637;DHT22;2331;48.806;9.140;2023-05-28T06:31:46;16.50;1.00
4637;DHT22;2331;48.806;9.140;2023-05-28T06:34:14;16.60;1.00
4637;DHT22;2331;48.806;9.140;2023-05-28T06:36:41;16.60;1.00
4637;DHT22;2331;48.806;9.140;2023-05-28T06:39:08;16.70;1.00
4637;DHT22;2331;48.806;9.140;2023-05-28T06:41:36;16.80;1.00
4637;DHT22;2331;48.806;9.140;2023-05-28T06:44:03;16.80;1.00
4637;DHT22;2331;48.806;9.140;2023-05-28T06:46:30;16.90;1.00
4637;DHT22;2331;48.806;9.140;2023-05-28T06:48:57;16.90;1.00
4637;DHT22;2331;48.806;9.140;2023-05-28T06:51:25;17.00;1.00
4637;DHT22;2331;48.806;9.140;2023-05-28T06:53:52;17.10;1.00
4637;DHT22;2331;48.806;9.140;2023-05-28T06:56:19;17.10;1.00
4637;DHT22;2331;48.806;9.140;2023-05-28T06:58:47;17.20;1.00
4637;DHT22;2331;48.806;9.140;2023-05-28T07:01:16;17.20;1.00
4637;DHT22;2331;48.806;9.140;2023-05-28T07:03:43;17.30;1.00
4637;DHT22;2331;48.806;9.140;2023-05-28T07:06:09;17.30;1.00
4637;DHT22;2331;48.806;9.140;2023-05-28T07:08:38;17.40;1.00
4637;DHT22;2331;48.806;9.140;2023-05-28T07:11:06;17.50;1.00
4637;DHT22;2331;48.806;9.140;2023-05-28T07:13:34;17.60;1.00
4637;DHT22;2331;48.806;9.140;2023-05-28T07:16:01;17.60;1.00
4637;DHT22;2331;48.806;9.140;2023-05-28T07:18:28;17.70;1.00
4637;DHT22;2331;48.806;9.140;2023-05-28T07:20:54;17.80;1.00
4637;DHT22;2331;48.806;9.140;2023-05-28T07:23:21;17.90;1.00
4637;DHT22;2331;48.806;9.140;2023-05-28T07:25:49;18.00;1.00
4637;DHT22;2331;48.806;9.140;2023-05-28T07:28:16;18.10;1.00
4637;DHT22;2331;48.806;9.140;2023-05-28T07:30:43;18.20;1.00
4637;DHT22;2331;48.806;9.140;2023-05-28T07:33:10;18.30;1.00
4637;DHT22;2331;48.806;9.140;2023-05-28T07:35:36;18.30;1.00
4637;DHT22;2331;48.806;9.140;2023-05-28T07:38:03;18.40;1.00
4637;DHT22;2331;48.806;9.140;2023-05-28T07:40:31;18.50;1.00
4637;DHT22;2331;48.806;9.140;2023-05-28T07:42:59;18.60;1.00
4637;DHT22;2331;48.806;9.140;2023-05-28T07:45:26;18.70;1.00
4637;DHT22;2331;48.806;9.140;2023-05-28T07:47:53;18.80;1.00
4637;DHT22;2331;48.806;9.140;2023-05-28T07:50:21;18.90;1.00
4637;DHT22;2331;48.806;9.140;2023-05-28T07:52:47;19.00;1.00
4637;DHT22;2331;48.806;9.140;2023-05-28T07:55:15;19.10;1.00
4637;DHT22;2331;48.806;9.140;2023-05-28T07:57:41;19.20;1.00
4637;DHT22;2331;48.806;9.140;2023-05-28T08:00:10;19.20;1.00
4637;DHT22;2331;48.806;9.140;2023-05-28T08:02:37;19.30;1.00
4637;DHT22;2331;48.806;9.140;2023-05-28T08:05:04;19.30;1.00
4637;DHT22;2331;48.806;9.140;2023-05-28T08:07:31;19.50;1.00
4637;DHT22;2331;48.806;9.140;2023-05-28T08:09:58;19.60;1.00
4637;DHT22;2331;48.806;9.140;2023-05-28T08:12:25;19.60;1.00
4637;DHT22;2331;48.806;9.140;2023-05-28T08:14:52;19.70;1.00
4637;DHT22;2331;48.806;9.140;2023-05-28T08:17:21;19.90;1.00
4637;DHT22;2331;48.806;9.140;2023-05-28T08:19:49;20.00;1.00
4637;DHT22;2331;48.806;9.140;2023-05-28T08:22:16;20.10;1.00
4637;DHT22;2331;48.806;9.140;2023-05-28T08:24:42;20.20;1.00
4637;DHT22;2331;48.806;9.140;2023-05-28T08:27:09;20.30;1.00
4637;DHT22;2331;48.806;9.140;2023-05-28T08:29:36;20.40;1.00
4637;DHT22;2331;48.806;9.140;2023-05-28T08:32:04;20.50;1.00
4637;DHT22;2331;48.806;9.140;2023-05-28T08:34:32;20.60;1.00
4637;DHT22;2331;48.806;9.140;2023-05-28T08:37:01;20.70;1.00
4637;DHT22;2331;48.806;9.140;2023-05-28T08:39:28;20.80;1.00
4637;DHT22;2331;48.806;9.140;2023-05-28T08:41:55;21.00;1.00
4637;DHT22;2331;48.806;9.140;2023-05-28T08:44:23;21.20;1.00
4637;DHT22;2331;48.806;9.140;2023-05-28T08:46:50;21.30;1.00
4637;DHT22;2331;48.806;9.140;2023-05-28T08:49:18;21.40;1.00
4637;DHT22;2331;48.806;9.140;2023-05-28T08:51:49;21.40;1.00
4637;DHT22;2331;48.806;9.140;2023-05-28T08:54:19;21.50;1.00
4637;DHT22;2331;48.806;9.140;2023-05-28T08:56:46;21.60;1.00
4637;DHT22;2331;48.806;9.140;2023-05-28T08:59:14;21.70;1.00
4637;DHT22;2331;48.806;9.140;2023-05-28T09:01:42;21.80;1.00
4637;DHT22;2331;48.806;9.140;2023-05-28T09:04:10;22.00;1.00
4637;DHT22;2331;48.806;9.140;2023-05-28T09:06:37;22.10;1.00
4637;DHT22;2331;48.806;9.140;2023-05-28T09:09:06;22.20;1.00
4637;DHT22;2331;48.806;9.140;2023-05-28T09:11:37;22.30;1.00
4637;DHT22;2331;48.806;9.140;2023-05-28T09:14:08;22.40;1.00
4637;DHT22;2331;48.806;9.140;2023-05-28T09:16:36;22.60;1.00
4637;DHT22;2331;48.806;9.140;2023-05-28T09:19:04;22.70;1.00
4637;DHT22;2331;48.806;9.140;2023-05-28T09:21:30;22.70;1.00
4637;DHT22;2331;48.806;9.140;2023-05-28T09:23:58;22.80;1.00
4637;DHT22;2331;48.806;9.140;2023-05-28T09:26:29;22.80;1.00
4637;DHT22;2331;48.806;9.140;2023-05-28T09:28:58;23.00;1.00
4637;DHT22;2331;48.806;9.140;2023-05-28T09:31:28;23.00;1.00
4637;DHT22;2331;48.806;9.140;2023-05-28T09:33:59;23.10;1.00
4637;DHT22;2331;48.806;9.140;2023-05-28T09:36:28;23.20;1.00
4637;DHT22;2331;48.806;9.140;2023-05-28T09:38:55;23.20;1.00
4637;DHT22;2331;48.806;9.140;2023-05-28T09:41:23;23.30;1.00
4637;DHT22;2331;48.806;9.140;2023-05-28T09:43:58;23.40;1.00
4637;DHT22;2331;48.806;9.140;2023-05-28T09:46:28;23.40;1.00
4637;DHT22;2331;48.806;9.140;2023-05-28T09:48:55;23.60;1.00
4637;DHT22;2331;48.806;9.140;2023-05-28T09:51:25;23.70;1.00
4637;DHT22;2331;48.806;9.140;2023-05-28T09:53:56;23.80;1.00
4637;DHT22;2331;48.806;9.140;2023-05-28T09:56:26;23.90;1.00
4637;DHT22;2331;48.806;9.140;2023-05-28T09:58:57;23.90;1.00
4637;DHT22;2331;48.806;9.140;2023-05-28T10:01:26;23.80;1.00
4637;DHT22;2331;48.806;9.140;2023-05-28T10:04:01;23.90;1.00
4637;DHT22;2331;48.806;9.140;2023-05-28T10:06:29;24.00;1.00
4637;DHT22;2331;48.806;9.140;2023-05-28T10:08:57;24.10;1.00
4637;DHT22;2331;48.806;9.140;2023-05-28T10:11:29;24.20;1.00
4637;DHT22;2331;48.806;9.140;2023-05-28T10:13:57;24.30;1.00
4637;DHT22;2331;48.806;9.140;2023-05-28T10:16:25;24.30;1.00
4637;DHT22;2331;48.806;9.140;2023-05-28T10:18:53;24.40;1.00
4637;DHT22;2331;48.806;9.140;2023-05-28T10:21:22;24.50;1.00
4637;DHT22;2331;48.806;9.140;2023-05-28T10:23:49;24.60;1.00
4637;DHT22;2331;48.806;9.140;2023-05-28T10:26:16;24.70;1.00
4637;DHT22;2331;48.806;9.140;2023-05-28T10:28:52;24.70;1.00
4637;DHT22;2331;48.806;9.140;2023-05-28T10:31:23;24.80;1.00
4637;DHT22;2331;48.806;9.140;2023-05-28T10:33:51;24.80;1.00
4637;DHT22;2331;48.806;9.140;2023-05-28T10:36:20;24.90;1.00
4637;DHT22;2331;48.806;9.140;2023-05-28T10:38:58;25.00;1.00
4637;DHT22;2331;48.806;9.140;2023-05-28T10:41:42;25.00;1.00
4637;DHT22;2331;48.806;9.140;2023-05-28T10:44:16;25.20;1.00
4637;DHT22;2331;48.806;9.140;2023-05-28T10:46:45;25.20;1.00
4637;DHT22;2331;48.806;9.140;2023-05-28T10:49:20;25.20;1.00
4637;DHT22;2331;48.806;9.140;2023-05-28T10:51:57;25.30;1.00
4637;DHT22;2331;48.806;9.140;2023-05-28T10:54:39;25.30;1.00
4637;DHT22;2331;48.806;9.140;2023-05-28T10:57:12;25.40;1.00
4637;DHT22;2331;48.806;9.140;2023-05-28T10:59:45;25.50;1.00
4637;DHT22;2331;48.806;9.140;2023-05-28T11:02:17;25.50;1.00
4637;DHT22;2331;48.806;9.140;2023-05-28T11:04:44;25.60;1.00
4637;DHT22;2331;48.806;9.140;2023-05-28T11:07:12;25.60;1.00
4637;DHT22;2331;48.806;9.140;2023-05-28T11:09:39;25.70;1.00
4637;DHT22;2331;48.806;9.140;2023-05-28T11:12:07;25.70;1.00
4637;DHT22;2331;48.806;9.140;2023-05-28T11:14:34;25.80;1.00
4637;DHT22;2331;48.806;9.140;2023-05-28T11:17:06;25.90;1.00
4637;DHT22;2331;48.806;9.140;2023-05-28T11:19:40;26.00;1.00
4637;DHT22;2331;48.806;9.140;2023-05-28T11:22:08;26.00;1.00
4637;DHT22;2331;48.806;9.140;2023-05-28T11:24:50;26.20;1.00
4637;DHT22;2331;48.806;9.140;2023-05-28T11:27:16;26.20;1.00
4637;DHT22;2331;48.806;9.140;2023-05-28T11:29:43;26.30;1.00
4637;DHT22;2331;48.806;9.140;2023-05-28T11:32:10;26.30;1.00
4637;DHT22;2331;48.806;9.140;2023-05-28T11:34:37;26.50;1.00
4637;DHT22;2331;48.806;9.140;2023-05-28T11:37:05;26.70;1.00
4637;DHT22;2331;48.806;9.140;2023-05-28T11:39:32;26.70;1.00
4637;DHT22;2331;48.806;9.140;2023-05-28T11:41:59;26.90;1.00
4637;DHT22;2331;48.806;9.140;2023-05-28T11:44:26;27.00;1.00
4637;DHT22;2331;48.806;9.140;2023-05-28T11:46:54;27.00;1.00
4637;DHT22;2331;48.806;9.140;2023-05-28T11:49:21;27.00;1.00
4637;DHT22;2331;48.806;9.140;2023-05-28T11:51:50;27.10;1.00
4637;DHT22;2331;48.806;9.140;2023-05-28T11:54:19;27.10;1.00
4637;DHT22;2331;48.806;9.140;2023-05-28T11:56:48;27.20;1.00
4637;DHT22;2331;48.806;9.140;2023-05-28T11:59:15;27.30;1.00
4637;DHT22;2331;48.806;9.140;2023-05-28T12:01:43;27.30;1.00
4637;DHT22;2331;48.806;9.140;2023-05-28T12:04:10;27.40;1.00
4637;DHT22;2331;48.806;9.140;2023-05-28T12:06:49;27.40;1.00
4637;DHT22;2331;48.806;9.140;2023-05-28T12:09:16;27.50;1.00
4637;DHT22;2331;48.806;9.140;2023-05-28T12:12:01;27.50;1.00
4637;DHT22;2331;48.806;9.140;2023-05-28T12:14:29;27.60;1.00
4637;DHT22;2331;48.806;9.140;2023-05-28T12:17:04;27.60;1.00
4637;DHT22;2331;48.806;9.140;2023-05-28T12:19:32;27.70;1.00
4637;DHT22;2331;48.806;9.140;2023-05-28T12:21:59;27.70;1.00
4637;DHT22;2331;48.806;9.140;2023-05-28T12:24:27;27.60;1.00
4637;DHT22;2331;48.806;9.140;2023-05-28T12:26:55;27.60;1.00
4637;DHT22;2331;48.806;9.140;2023-05-28T12:29:22;27.50;1.00
4637;DHT22;2331;48.806;9.140;2023-05-28T12:31:57;27.60;1.00
4637;DHT22;2331;48.806;9.140;2023-05-28T12:34:24;27.60;1.00
4637;DHT22;2331;48.806;9.140;2023-05-28T12:36:51;27.70;1.00
4637;DHT22;2331;48.806;9.140;2023-05-28T12:39:18;27.80;1.00
4637;DHT22;2331;48.806;9.140;2023-05-28T12:41:44;27.80;1.00
4637;DHT22;2331;48.806;9.140;2023-05-28T12:44:12;27.90;1.00
4637;DHT22;2331;48.806;9.140;2023-05-28T12:46:39;27.90;1.00
4637;DHT22;2331;48.806;9.140;2023-05-28T12:49:06;28.00;1.00
4637;DHT22;2331;48.806;9.140;2023-05-28T12:51:33;28.10;1.00
4637;DHT22;2331;48.806;9.140;2023-05-28T12:54:01;28.10;1.00
4637;DHT22;2331;48.806;9.140;2023-05-28T12:56:27;28.10;1.00
4637;DHT22;2331;48.806;9.140;2023-05-28T12:58:54;28.10;1.00
4637;DHT22;2331;48.806;9.140;2023-05-28T13:01:22;28.20;1.00
4637;DHT22;2331;48.806;9.140;2023-05-28T13:03:50;28.20;1.00
4637;DHT22;2331;48.806;9.140;2023-05-28T13:06:17;28.20;1.00
4637;DHT22;2331;48.806;9.140;2023-05-28T13:08:44;28.20;1.00
4637;DHT22;2331;48.806;9.140;2023-05-28T13:13:44;28.30;1.00
4637;DHT22;2331;48.806;9.140;2023-05-28T13:16:11;28.20;1.00
4637;DHT22;2331;48.806;9.140;2023-05-28T13:18:39;28.20;1.00
4637;DHT22;2331;48.806;9.140;2023-05-28T13:21:06;28.30;1.00
4637;DHT22;2331;48.806;9.140;2023-05-28T13:23:33;28.50;1.00
4637;DHT22;2331;48.806;9.140;2023-05-28T13:26:00;28.50;1.00
4637;DHT22;2331;48.806;9.140;2023-05-28T13:28:27;28.50;1.00
4637;DHT22;2331;48.806;9.140;2023-05-28T13:30:53;28.60;1.00
4637;DHT22;2331;48.806;9.140;2023-05-28T13:33:20;28.50;1.00
4637;DHT22;2331;48.806;9.140;2023-05-28T13:35:48;28.50;1.00
4637;DHT22;2331;48.806;9.140;2023-05-28T13:38:15;28.60;1.00
4637;DHT22;2331;48.806;9.140;2023-05-28T13:40:42;28.50;1.00
4637;DHT22;2331;48.806;9.140;2023-05-28T13:43:10;28.60;1.00
4637;DHT22;2331;48.806;9.140;2023-05-28T13:45:38;28.70;1.00
4637;DHT22;2331;48.806;9.140;2023-05-28T13:48:05;28.80;1.00
4637;DHT22;2331;48.806;9.140;2023-05-28T13:50:32;28.80;1.00
4637;DHT22;2331;48.806;9.140;2023-05-28T13:53:01;28.70;1.00
4637;DHT22;2331;48.806;9.140;2023-05-28T13:55:28;28.80;1.00
4637;DHT22;2331;48.806;9.140;2023-05-28T13:57:55;28.80;1.00
4637;DHT22;2331;48.806;9.140;2023-05-28T14:00:22;28.80;1.00
4637;DHT22;2331;48.806;9.140;2023-05-28T14:02:49;28.80;1.00
4637;DHT22;2331;48.806;9.140;2023-05-28T14:05:15;28.90;1.00
4637;DHT22;2331;48.806;9.140;2023-05-28T14:07:42;28.80;1.00
4637;DHT22;2331;48.806;9.140;2023-05-28T14:10:11;28.90;1.00
4637;DHT22;2331;48.806;9.140;2023-05-28T14:12:37;29.00;1.00
4637;DHT22;2331;48.806;9.140;2023-05-28T14:15:06;29.00;1.00
4637;DHT22;2331;48.806;9.140;2023-05-28T14:17:32;29.00;1.00
4637;DHT22;2331;48.806;9.140;2023-05-28T14:19:59;29.10;1.00
4637;DHT22;2331;48.806;9.140;2023-05-28T14:22:26;29.00;1.00
4637;DHT22;2331;48.806;9.140;2023-05-28T14:24:53;28.90;1.00
4637;DHT22;2331;48.806;9.140;2023-05-28T14:27:21;29.00;1.00
4637;DHT22;2331;48.806;9.140;2023-05-28T14:29:48;29.20;1.00
4637;DHT22;2331;48.806;9.140;2023-05-28T14:32:14;29.10;1.00
4637;DHT22;2331;48.806;9.140;2023-05-28T14:34:41;29.20;1.00
4637;DHT22;2331;48.806;9.140;2023-05-28T14:37:08;29.20;1.00
4637;DHT22;2331;48.806;9.140;2023-05-28T14:39:35;29.20;1.00
4637;DHT22;2331;48.806;9.140;2023-05-28T14:42:02;29.00;1.00
4637;DHT22;2331;48.806;9.140;2023-05-28T14:44:30;29.20;1.00
4637;DHT22;2331;48.806;9.140;2023-05-28T14:46:57;29.20;1.00
4637;DHT22;2331;48.806;9.140;2023-05-28T14:49:24;29.20;1.00
4637;DHT22;2331;48.806;9.140;2023-05-28T14:51:54;29.20;1.00
4637;DHT22;2331;48.806;9.140;2023-05-28T14:54:22;29.30;1.00
4637;DHT22;2331;48.806;9.140;2023-05-28T14:56:49;29.20;1.00
4637;DHT22;2331;48.806;9.140;2023-05-28T14:59:17;29.30;1.00
4637;DHT22;2331;48.806;9.140;2023-05-28T15:01:46;29.30;1.00
4637;DHT22;2331;48.806;9.140;2023-05-28T15:04:13;29.40;1.00
4637;DHT22;2331;48.806;9.140;2023-05-28T15:06:40;29.50;1.00
4637;DHT22;2331;48.806;9.140;2023-05-28T15:09:07;29.40;1.00
4637;DHT22;2331;48.806;9.140;2023-05-28T15:11:33;29.40;1.00
4637;DHT22;2331;48.806;9.140;2023-05-28T15:14:00;29.40;1.00
4637;DHT22;2331;48.806;9.140;2023-05-28T15:16:27;29.40;1.00
4637;DHT22;2331;48.806;9.140;2023-05-28T15:18:55;29.40;1.00
4637;DHT22;2331;48.806;9.140;2023-05-28T15:21:22;29.40;1.00
4637;DHT22;2331;48.806;9.140;2023-05-28T15:23:49;29.50;1.00
4637;DHT22;2331;48.806;9.140;2023-05-28T15:26:15;29.30;1.00
4637;DHT22;2331;48.806;9.140;2023-05-28T15:28:43;29.40;1.00
4637;DHT22;2331;48.806;9.140;2023-05-28T15:31:10;29.40;1.00
4637;DHT22;2331;48.806;9.140;2023-05-28T15:33:37;29.40;1.00
4637;DHT22;2331;48.806;9.140;2023-05-28T15:36:06;29.40;1.00
4637;DHT22;2331;48.806;9.140;2023-05-28T15:38:34;29.50;1.00
4637;DHT22;2331;48.806;9.140;2023-05-28T15:41:01;29.50;1.00
4637;DHT22;2331;48.806;9.140;2023-05-28T15:43:28;29.40;1.00
4637;DHT22;2331;48.806;9.140;2023-05-28T15:45:55;29.40;1.00
4637;DHT22;2331;48.806;9.140;2023-05-28T15:48:22;29.40;1.00
4637;DHT22;2331;48.806;9.140;2023-05-28T15:50:49;29.50;1.00
4637;DHT22;2331;48.806;9.140;2023-05-28T15:53:17;29.40;1.00
4637;DHT22;2331;48.806;9.140;2023-05-28T15:55:45;29.50;1.00
4637;DHT22;2331;48.806;9.140;2023-05-28T15:58:13;29.40;1.00
4637;DHT22;2331;48.806;9.140;2023-05-28T16:00:40;29.60;1.00
4637;DHT22;2331;48.806;9.140;2023-05-28T16:03:11;29.60;1.00
4637;DHT22;2331;48.806;9.140;2023-05-28T16:05:40;29.50;1.00
4637;DHT22;2331;48.806;9.140;2023-05-28T16:08:07;29.40;1.00
4637;DHT22;2331;48.806;9.140;2023-05-28T16:10:37;29.40;1.00
4637;DHT22;2331;48.806;9.140;2023-05-28T16:13:06;29.40;1.00
4637;DHT22;2331;48.806;9.140;2023-05-28T16:15:33;29.40;1.00
4637;DHT22;2331;48.806;9.140;2023-05-28T16:18:02;29.30;1.00
4637;DHT22;2331;48.806;9.140;2023-05-28T16:20:30;29.40;1.00
4637;DHT22;2331;48.806;9.140;2023-05-28T16:22:57;29.20;1.00